sensor_id;sensor_type;location;lat;lon;timestamp;pressure;altitude;pressure_sealevel;temperature;humidity
17950;BME280;9100;48.700;9.316;2023-04-26T00:00:26;97772.6;;;9;100
17950;BME280;9100;48.700;9.316;2023-04-26T00:01:26;97768.5;;;8.99;100
17950;BME280;9100;48.700;9.316;2023-04-26T00:02:26;97768.6;;;8.98;100
17950;BME280;9100;48.700;9.316;2023-04-26T00:03:26;97775.5;;;8.97;100
17950;BME280;9100;48.700;9.316;2023-04-26T00:04:26;97766.2;;;8.96;100
17950;BME280;9100;48.700;9.316;2023-04-26T00:04:45;97779.8;;;8.97;100
17950;BME280;9100;48.700;9.316;2023-04-26T00:05:26;97770.6;;;8.96;100
17950;BME280;9100;48.700;9.316;2023-04-26T00:06:26;97770.6;;;8.96;100
17950;BME280;9100;48.700;9.316;2023-04-26T00:07:26;97777.4;;;8.95;100
17950;BME280;9100;48.700;9.316;2023-04-26T00:08:26;97765.59999999999;;;8.94;100
17950;BME280;9100;48.700;9.316;2023-04-26T00:09:26;97777.59999999999;;;8.94;100
17950;BME280;9100;48.700;9.316;2023-04-26T00:09:45;97761.8;;;8.9;100
17950;BME280;9100;48.700;9.316;2023-04-26T00:10:26;97772.6;;;8.92;100
17950;BME280;9100;48.700;9.316;2023-04-26T00:11:26;97776.9;;;8.92;100
17950;BME280;9100;48.700;9.316;2023-04-26T00:12:26;97782;;;8.92;100
17950;BME280;9100;48.700;9.316;2023-04-26T00:13:26;97775.3;;;8.91;100
17950;BME280;9100;48.700;9.316;2023-04-26T00:14:26;97773.1;;;8.88;100
17950;BME280;9100;48.700;9.316;2023-04-26T00:14:45;97776.5;;;8.88;100
17950;BME280;9100;48.700;9.316;2023-04-26T00:15:26;97775.7;;;8.88;100
17950;BME280;9100;48.700;9.316;2023-04-26T00:16:26;97775.8;;;8.86;100
17950;BME280;9100;48.700;9.316;2023-04-26T00:17:26;97779.2;;;8.87;100
17950;BME280;9100;48.700;9.316;2023-04-26T00:18:26;97780.2;;;8.86;100
17950;BME280;9100;48.700;9.316;2023-04-26T00:19:26;97775.40000000001;;;8.83;100
17950;BME280;9100;48.700;9.316;2023-04-26T00:19:45;97780.5;;;8.83;100
17950;BME280;9100;48.700;9.316;2023-04-26T00:20:26;97777.9;;;8.83;100
17950;BME280;9100;48.700;9.316;2023-04-26T00:21:26;97776.3;;;8.82;100
17950;BME280;9100;48.700;9.316;2023-04-26T00:22:26;97783;;;8.83;100
17950;BME280;9100;48.700;9.316;2023-04-26T00:23:26;97779.8;;;8.81;100
17950;BME280;9100;48.700;9.316;2023-04-26T00:24:26;97784.90000000001;;;8.81;100
17950;BME280;9100;48.700;9.316;2023-04-26T00:24:45;97774.7;;;8.81;100
17950;BME280;9100;48.700;9.316;2023-04-26T00:25:26;97778.2;;;8.8;100
17950;BME280;9100;48.700;9.316;2023-04-26T00:26:26;97774.7;;;8.81;100
17950;BME280;9100;48.700;9.316;2023-04-26T00:27:26;97773.2;;;8.8;100
17950;BME280;9100;48.700;9.316;2023-04-26T00:28:27;97771.5;;;8.78;100
17950;BME280;9100;48.700;9.316;2023-04-26T00:29:26;97770;;;8.78;100
17950;BME280;9100;48.700;9.316;2023-04-26T00:29:45;97769.2;;;8.77;100
17950;BME280;9100;48.700;9.316;2023-04-26T00:30:26;97776;;;8.76;100
17950;BME280;9100;48.700;9.316;2023-04-26T00:31:26;97770;;;8.78;100
17950;BME280;9100;48.700;9.316;2023-04-26T00:32:26;97771.90000000001;;;8.75;100
17950;BME280;9100;48.700;9.316;2023-04-26T00:33:26;97767.8;;;8.74;100
17950;BME280;9100;48.700;9.316;2023-04-26T00:34:30;97774.59999999999;;;8.74;100
17950;BME280;9100;48.700;9.316;2023-04-26T00:34:45;97773;;;8.73;100
17950;BME280;9100;48.700;9.316;2023-04-26T00:35:26;97778;;;8.74;100
17950;BME280;9100;48.700;9.316;2023-04-26T00:36:26;97773.8;;;8.73;100
17950;BME280;9100;48.700;9.316;2023-04-26T00:37:26;97778.9;;;8.73;100
17950;BME280;9100;48.700;9.316;2023-04-26T00:38:26;97768.7;;;8.73;100
17950;BME280;9100;48.700;9.316;2023-04-26T00:39:26;97770.6;;;8.71;100
17950;BME280;9100;48.700;9.316;2023-04-26T00:39:45;97781.6;;;8.72;100
17950;BME280;9100;48.700;9.316;2023-04-26T00:40:26;97773;;;8.73;100
17950;BME280;9100;48.700;9.316;2023-04-26T00:41:26;97776.5;;;8.72;100
17950;BME280;9100;48.700;9.316;2023-04-26T00:42:26;97770.6;;;8.71;100
17950;BME280;9100;48.700;9.316;2023-04-26T00:43:26;97774.1;;;8.7;100
17950;BME280;9100;48.700;9.316;2023-04-26T00:44:26;97775.3;;;8.68;100
17950;BME280;9100;48.700;9.316;2023-04-26T00:44:45;97773.7;;;8.67;100
17950;BME280;9100;48.700;9.316;2023-04-26T00:45:26;97776;;;8.68;100
17950;BME280;9100;48.700;9.316;2023-04-26T00:46:26;97776.8;;;8.69;100
17950;BME280;9100;48.700;9.316;2023-04-26T00:47:27;97769.4;;;8.67;100
17950;BME280;9100;48.700;9.316;2023-04-26T00:48:26;97767.8;;;8.66;100
17950;BME280;9100;48.700;9.316;2023-04-26T00:49:26;97772.90000000001;;;8.66;100
17950;BME280;9100;48.700;9.316;2023-04-26T00:49:45;97773.8;;;8.65;100
17950;BME280;9100;48.700;9.316;2023-04-26T00:50:26;97772.90000000001;;;8.66;100
17950;BME280;9100;48.700;9.316;2023-04-26T00:51:26;97776.4;;;8.65;100
17950;BME280;9100;48.700;9.316;2023-04-26T00:52:26;97767.9;;;8.65;100
17950;BME280;9100;48.700;9.316;2023-04-26T00:53:26;97776.5;;;8.64;100
17950;BME280;9100;48.700;9.316;2023-04-26T00:54:26;97776.70000000001;;;8.62;100
17950;BME280;9100;48.700;9.316;2023-04-26T00:54:45;97779.4;;;8.61;100
17950;BME280;9100;48.700;9.316;2023-04-26T00:55:26;97776.70000000001;;;8.62;100
17950;BME280;9100;48.700;9.316;2023-04-26T00:56:26;97779.3;;;8.62;100
17950;BME280;9100;48.700;9.316;2023-04-26T00:57:26;97782.8;;;8.61;100
17950;BME280;9100;48.700;9.316;2023-04-26T00:58:26;97784.5;;;8.61;100
17950;BME280;9100;48.700;9.316;2023-04-26T00:59:26;97782.1;;;8.59;100
17950;BME280;9100;48.700;9.316;2023-04-26T00:59:45;97782.3;;;8.58;100
17950;BME280;9100;48.700;9.316;2023-04-26T01:00:27;97779.7;;;8.58;100
17950;BME280;9100;48.700;9.316;2023-04-26T01:01:26;97784.2;;;8.56;100
17950;BME280;9100;48.700;9.316;2023-04-26T01:02:26;97786.8;;;8.56;100
17950;BME280;9100;48.700;9.316;2023-04-26T01:03:26;97789.5;;;8.54;100
17950;BME280;9100;48.700;9.316;2023-04-26T01:04:26;97787.09999999999;;;8.53;100
17950;BME280;9100;48.700;9.316;2023-04-26T01:04:45;97787.90000000001;;;8.53;100
17950;BME280;9100;48.700;9.316;2023-04-26T01:05:26;97787.09999999999;;;8.53;100
17950;BME280;9100;48.700;9.316;2023-04-26T01:06:27;97786.3;;;8.52;100
17950;BME280;9100;48.700;9.316;2023-04-26T01:07:26;97784.7;;;8.51;100
17950;BME280;9100;48.700;9.316;2023-04-26T01:08:26;97788.2;;;8.5;100
17950;BME280;9100;48.700;9.316;2023-04-26T01:09:26;97796;;;8.49;100
17950;BME280;9100;48.700;9.316;2023-04-26T01:09:45;97785;;;8.48;100
17950;BME280;9100;48.700;9.316;2023-04-26T01:10:27;97790.09999999999;;;8.48;100
17950;BME280;9100;48.700;9.316;2023-04-26T01:11:26;97794.4;;;8.48;100
17950;BME280;9100;48.700;9.316;2023-04-26T01:12:26;97793.6;;;8.47;100
17950;BME280;9100;48.700;9.316;2023-04-26T01:13:26;97786.90000000001;;;8.46;100
17950;BME280;9100;48.700;9.316;2023-04-26T01:14:26;97800.5;;;8.47;100
17950;BME280;9100;48.700;9.316;2023-04-26T01:14:45;97799.7;;;8.46;100
17950;BME280;9100;48.700;9.316;2023-04-26T01:15:26;97802.20000000001;;;8.46;100
17950;BME280;9100;48.700;9.316;2023-04-26T01:16:26;97798.1;;;8.45;100
17950;BME280;9100;48.700;9.316;2023-04-26T01:17:26;97799;;;8.44;100
17950;BME280;9100;48.700;9.316;2023-04-26T01:18:26;97799;;;8.44;100
17950;BME280;9100;48.700;9.316;2023-04-26T01:19:26;97797.5;;;8.43;100
17950;BME280;9100;48.700;9.316;2023-04-26T01:19:46;97795.7;;;8.44;100
17950;BME280;9100;48.700;9.316;2023-04-26T01:20:26;97800.59999999999;;;8.45;100
17950;BME280;9100;48.700;9.316;2023-04-26T01:21:26;97790.59999999999;;;8.44;100
17950;BME280;9100;48.700;9.316;2023-04-26T01:22:26;97790.7;;;8.42;100
17950;BME280;9100;48.700;9.316;2023-04-26T01:23:26;97798.2;;;8.44;100
17950;BME280;9100;48.700;9.316;2023-04-26T01:24:26;97795.5;;;8.45;100
17950;BME280;9100;48.700;9.316;2023-04-26T01:24:46;97788.9;;;8.44;100
17950;BME280;9100;48.700;9.316;2023-04-26T01:25:26;97792;;;8.46;100
17950;BME280;9100;48.700;9.316;2023-04-26T01:26:26;97788.5;;;8.47;100
17950;BME280;9100;48.700;9.316;2023-04-26T01:27:26;97790.9;;;8.49;100
17950;BME280;9100;48.700;9.316;2023-04-26T01:28:26;97790.09999999999;;;8.48;100
17950;BME280;9100;48.700;9.316;2023-04-26T01:29:26;97786.8;;;8.48;100
17950;BME280;9100;48.700;9.316;2023-04-26T01:29:45;97783.4;;;8.47;100
17950;BME280;9100;48.700;9.316;2023-04-26T01:30:26;97787.7;;;8.47;100
17950;BME280;9100;48.700;9.316;2023-04-26T01:31:26;97789.3;;;8.48;100
17950;BME280;9100;48.700;9.316;2023-04-26T01:32:26;97791.09999999999;;;8.47;100
17950;BME280;9100;48.700;9.316;2023-04-26T01:33:26;97787.7;;;8.47;100
17950;BME280;9100;48.700;9.316;2023-04-26T01:34:26;97783.4;;;8.47;100
17950;BME280;9100;48.700;9.316;2023-04-26T01:34:45;97797.1;;;8.46;100
17950;BME280;9100;48.700;9.316;2023-04-26T01:35:26;97788.7;;;8.46;100
17950;BME280;9100;48.700;9.316;2023-04-26T01:36:26;97785.29999999999;;;8.45;100
17950;BME280;9100;48.700;9.316;2023-04-26T01:37:26;97786.3;;;8.44;100
17950;BME280;9100;48.700;9.316;2023-04-26T01:38:26;97787.2;;;8.43;100
17950;BME280;9100;48.700;9.316;2023-04-26T01:39:26;97794.3;;;8.41;100
17950;BME280;9100;48.700;9.316;2023-04-26T01:39:45;97792.5;;;8.42;100
17950;BME280;9100;48.700;9.316;2023-04-26T01:40:26;97798.6;;;8.41;100
17950;BME280;9100;48.700;9.316;2023-04-26T01:41:26;97792.7;;;8.4;100
17950;BME280;9100;48.700;9.316;2023-04-26T01:42:26;97789.5;;;8.38;100
17950;BME280;9100;48.700;9.316;2023-04-26T01:43:26;97787.90000000001;;;8.37;100
17950;BME280;9100;48.700;9.316;2023-04-26T01:44:26;97796.5;;;8.36;100
17950;BME280;9100;48.700;9.316;2023-04-26T01:44:45;97796.5;;;8.36;100
17950;BME280;9100;48.700;9.316;2023-04-26T01:45:26;97801.59999999999;;;8.36;100
17950;BME280;9100;48.700;9.316;2023-04-26T01:46:26;97789.8;;;8.35;100
17950;BME280;9100;48.700;9.316;2023-04-26T01:47:26;97792.4;;;8.35;100
17950;BME280;9100;48.700;9.316;2023-04-26T01:48:26;97783.1;;;8.34;100
17950;BME280;9100;48.700;9.316;2023-04-26T01:49:26;97794.4;;;8.32;100
17950;BME280;9100;48.700;9.316;2023-04-26T01:49:45;97794.4;;;8.32;100
17950;BME280;9100;48.700;9.316;2023-04-26T01:50:26;97794.4;;;8.32;100
17950;BME280;9100;48.700;9.316;2023-04-26T01:51:26;97787.7;;;8.31;100
17950;BME280;9100;48.700;9.316;2023-04-26T01:52:26;97789.5;;;8.3;100
17950;BME280;9100;48.700;9.316;2023-04-26T01:53:26;97793.9;;;8.28;100
17950;BME280;9100;48.700;9.316;2023-04-26T01:54:26;97787.2;;;8.27;100
17950;BME280;9100;48.700;9.316;2023-04-26T01:54:45;97794.3;;;8.25;100
17950;BME280;9100;48.700;9.316;2023-04-26T01:55:26;97796.8;;;8.25;100
17950;BME280;9100;48.700;9.316;2023-04-26T01:56:26;97792.7;;;8.24;100
17950;BME280;9100;48.700;9.316;2023-04-26T01:57:26;97792.7;;;8.24;100
17950;BME280;9100;48.700;9.316;2023-04-26T01:58:26;97796.1;;;8.23;100
17950;BME280;9100;48.700;9.316;2023-04-26T01:59:26;97796.5;;;8.2;100
17950;BME280;9100;48.700;9.316;2023-04-26T01:59:45;97800;;;8.19;100
17950;BME280;9100;48.700;9.316;2023-04-26T02:00:27;97793.3;;;8.18;100
17950;BME280;9100;48.700;9.316;2023-04-26T02:01:26;97793.5;;;8.16;100
17950;BME280;9100;48.700;9.316;2023-04-26T02:02:26;97797.7;;;8.16;100
17950;BME280;9100;48.700;9.316;2023-04-26T02:03:26;97798.7;;;8.15;100
17950;BME280;9100;48.700;9.316;2023-04-26T02:04:26;97799.8;;;8.12;100
17950;BME280;9100;48.700;9.316;2023-04-26T02:04:45;97804.1;;;8.12;100
17950;BME280;9100;48.700;9.316;2023-04-26T02:05:26;97792.4;;;8.11;100
17950;BME280;9100;48.700;9.316;2023-04-26T02:06:26;97792.5;;;8.09;100
17950;BME280;9100;48.700;9.316;2023-04-26T02:07:26;97798.40000000001;;;8.1;100
17950;BME280;9100;48.700;9.316;2023-04-26T02:08:26;97800.9;;;8.1;100
17950;BME280;9100;48.700;9.316;2023-04-26T02:09:26;97800.3;;;8.08;100
17950;BME280;9100;48.700;9.316;2023-04-26T02:09:45;97794.6;;;8.06;100
17950;BME280;9100;48.700;9.316;2023-04-26T02:10:26;97797.1;;;8.06;100
17950;BME280;9100;48.700;9.316;2023-04-26T02:11:26;97798.1;;;8.05;100
17950;BME280;9100;48.700;9.316;2023-04-26T02:12:26;97796.5;;;8.04;100
17950;BME280;9100;48.700;9.316;2023-04-26T02:13:26;97795;;;8.01;100
17950;BME280;9100;48.700;9.316;2023-04-26T02:14:26;97796.8;;;8.01;100
17950;BME280;9100;48.700;9.316;2023-04-26T02:14:45;97801.3;;;7.99;100
17950;BME280;9100;48.700;9.316;2023-04-26T02:15:26;97796;;;8;100
17950;BME280;9100;48.700;9.316;2023-04-26T02:16:26;97794.4;;;7.99;100
17950;BME280;9100;48.700;9.316;2023-04-26T02:17:26;97788.5;;;7.99;100
17950;BME280;9100;48.700;9.316;2023-04-26T02:18:27;97792;;;7.98;100
17950;BME280;9100;48.700;9.316;2023-04-26T02:19:26;97788.8;;;7.96;100
17950;BME280;9100;48.700;9.316;2023-04-26T02:19:45;97771.2;;;7.86;100
17950;BME280;9100;48.700;9.316;2023-04-26T02:20:27;97793.9;;;7.96;100
17950;BME280;9100;48.700;9.316;2023-04-26T02:21:26;97787.09999999999;;;7.96;100
17950;BME280;9100;48.700;9.316;2023-04-26T02:22:26;97785.29999999999;;;7.97;100
17950;BME280;9100;48.700;9.316;2023-04-26T02:23:26;97788.8;;;7.96;100
17950;BME280;9100;48.700;9.316;2023-04-26T02:24:26;97786.40000000001;;;7.94;100
17950;BME280;9100;48.700;9.316;2023-04-26T02:24:45;97790.7;;;7.94;100
17950;BME280;9100;48.700;9.316;2023-04-26T02:25:26;97784.1;;;7.93;100
17950;BME280;9100;48.700;9.316;2023-04-26T02:26:26;97786.8;;;7.91;100
17950;BME280;9100;48.700;9.316;2023-04-26T02:27:26;97784.40000000001;;;7.9;100
17950;BME280;9100;48.700;9.316;2023-04-26T02:28:26;97783.6;;;7.89;100
17950;BME280;9100;48.700;9.316;2023-04-26T02:29:26;97786.3;;;7.88;100
17950;BME280;9100;48.700;9.316;2023-04-26T02:29:45;97787.2;;;7.87;100
17950;BME280;9100;48.700;9.316;2023-04-26T02:30:26;97782.1;;;7.87;100
17950;BME280;9100;48.700;9.316;2023-04-26T02:31:26;97786.7;;;7.83;100
17950;BME280;9100;48.700;9.316;2023-04-26T02:32:26;97783.4;;;7.83;100
17950;BME280;9100;48.700;9.316;2023-04-26T02:33:26;97787.90000000001;;;7.8;100
17950;BME280;9100;48.700;9.316;2023-04-26T02:34:26;97789.59999999999;;;7.8;100
17950;BME280;9100;48.700;9.316;2023-04-26T02:34:45;97796.5;;;7.79;100
17950;BME280;9100;48.700;9.316;2023-04-26T02:35:26;97791.4;;;7.79;100
17950;BME280;9100;48.700;9.316;2023-04-26T02:36:26;97790.59999999999;;;7.79;100
17950;BME280;9100;48.700;9.316;2023-04-26T02:37:26;97788;;;7.79;100
17950;BME280;9100;48.700;9.316;2023-04-26T02:38:26;97787.40000000001;;;7.77;100
17950;BME280;9100;48.700;9.316;2023-04-26T02:39:26;97782.5;;;7.75;100
17950;BME280;9100;48.700;9.316;2023-04-26T02:39:48;97794.2;;;7.76;100
17950;BME280;9100;48.700;9.316;2023-04-26T02:40:26;97790.09999999999;;;7.75;100
17950;BME280;9100;48.700;9.316;2023-04-26T02:41:26;97792.6;;;7.75;100
17950;BME280;9100;48.700;9.316;2023-04-26T02:42:26;97786.90000000001;;;7.73;100
17950;BME280;9100;48.700;9.316;2023-04-26T02:43:26;97792.2;;;7.72;100
17950;BME280;9100;48.700;9.316;2023-04-26T02:44:27;97789.9;;;7.69;100
17950;BME280;9100;48.700;9.316;2023-04-26T02:44:45;97785;;;7.67;100
17950;BME280;9100;48.700;9.316;2023-04-26T02:45:26;97791.7;;;7.68;100
17950;BME280;9100;48.700;9.316;2023-04-26T02:46:26;97785;;;7.67;100
17950;BME280;9100;48.700;9.316;2023-04-26T02:47:26;97783.4;;;7.66;100
17950;BME280;9100;48.700;9.316;2023-04-26T02:48:26;97785.29999999999;;;7.64;100
17950;BME280;9100;48.700;9.316;2023-04-26T02:49:26;97784.7;;;7.62;100
17950;BME280;9100;48.700;9.316;2023-04-26T02:49:45;97788.2;;;7.61;100
17950;BME280;9100;48.700;9.316;2023-04-26T02:50:26;97782.4;;;7.59;100
17950;BME280;9100;48.700;9.316;2023-04-26T02:51:26;97779.9;;;7.59;100
17950;BME280;9100;48.700;9.316;2023-04-26T02:52:26;97778.3;;;7.58;100
17950;BME280;9100;48.700;9.316;2023-04-26T02:53:26;97781.8;;;7.57;100
17950;BME280;9100;48.700;9.316;2023-04-26T02:54:26;97781.2;;;7.55;100
17950;BME280;9100;48.700;9.316;2023-04-26T02:54:45;97785.5;;;7.55;100
17950;BME280;9100;48.700;9.316;2023-04-26T02:55:26;97782.9;;;7.55;100
17950;BME280;9100;48.700;9.316;2023-04-26T02:56:26;97789.70000000001;;;7.54;100
17950;BME280;9100;48.700;9.316;2023-04-26T02:57:26;97784.7;;;7.54;100
17950;BME280;9100;48.700;9.316;2023-04-26T02:58:26;97782.3;;;7.53;100
17950;BME280;9100;48.700;9.316;2023-04-26T02:59:26;97779.7;;;7.53;100
17950;BME280;9100;48.700;9.316;2023-04-26T02:59:45;97785.79999999999;;;7.52;100
17950;BME280;9100;48.700;9.316;2023-04-26T03:00:26;97788.09999999999;;;7.53;100
17950;BME280;9100;48.700;9.316;2023-04-26T03:01:27;97794;;;7.54;100
17950;BME280;9100;48.700;9.316;2023-04-26T03:02:26;97779.9;;;7.51;100
17950;BME280;9100;48.700;9.316;2023-04-26T03:03:26;97789.09999999999;;;7.52;100
17950;BME280;9100;48.700;9.316;2023-04-26T03:04:26;97784.2;;;7.51;100
17950;BME280;9100;48.700;9.316;2023-04-26T03:04:45;97788.5;;;7.5;100
17950;BME280;9100;48.700;9.316;2023-04-26T03:05:26;97782.4;;;7.51;100
17950;BME280;9100;48.700;9.316;2023-04-26T03:06:26;97789.3;;;7.51;100
17950;BME280;9100;48.700;9.316;2023-04-26T03:07:26;97796.1;;;7.5;100
17950;BME280;9100;48.700;9.316;2023-04-26T03:08:26;97796.1;;;7.5;100
17950;BME280;9100;48.700;9.316;2023-04-26T03:09:26;97796.2;;;7.49;100
17950;BME280;9100;48.700;9.316;2023-04-26T03:09:45;97798;;;7.48;100
17950;BME280;9100;48.700;9.316;2023-04-26T03:10:26;97806.4;;;7.49;100
17950;BME280;9100;48.700;9.316;2023-04-26T03:11:26;97796.2;;;7.49;100
17950;BME280;9100;48.700;9.316;2023-04-26T03:12:26;97803.09999999999;;;7.48;100
17950;BME280;9100;48.700;9.316;2023-04-26T03:13:26;97799.7;;;7.48;100
17950;BME280;9100;48.700;9.316;2023-04-26T03:14:26;97799;;;7.47;100
17950;BME280;9100;48.700;9.316;2023-04-26T03:14:45;97793.9;;;7.47;100
17950;BME280;9100;48.700;9.316;2023-04-26T03:15:26;97801.3;;;7.49;100
17950;BME280;9100;48.700;9.316;2023-04-26T03:16:27;97801.2;;;7.5;100
17950;BME280;9100;48.700;9.316;2023-04-26T03:17:26;97800.2;;;7.51;100
17950;BME280;9100;48.700;9.316;2023-04-26T03:18:26;97802.8;;;7.51;100
17950;BME280;9100;48.700;9.316;2023-04-26T03:19:26;97790.09999999999;;;7.51;100
17950;BME280;9100;48.700;9.316;2023-04-26T03:19:45;97791.6;;;7.52;100
17950;BME280;9100;48.700;9.316;2023-04-26T03:20:27;97791.5;;;7.54;100
17950;BME280;9100;48.700;9.316;2023-04-26T03:21:26;97783.7;;;7.55;100
17950;BME280;9100;48.700;9.316;2023-04-26T03:22:26;97784.5;;;7.56;100
17950;BME280;9100;48.700;9.316;2023-04-26T03:23:26;97783.7;;;7.55;100
17950;BME280;9100;48.700;9.316;2023-04-26T03:24:26;97781.2;;;7.55;100
17950;BME280;9100;48.700;9.316;2023-04-26T03:24:45;97781.2;;;7.55;100
17950;BME280;9100;48.700;9.316;2023-04-26T03:25:26;97792.9;;;7.56;100
17950;BME280;9100;48.700;9.316;2023-04-26T03:26:26;97785.29999999999;;;7.56;100
17950;BME280;9100;48.700;9.316;2023-04-26T03:27:26;97786.1;;;7.57;100
17950;BME280;9100;48.700;9.316;2023-04-26T03:28:26;97795.6;;;7.55;100
17950;BME280;9100;48.700;9.316;2023-04-26T03:29:26;97794.8;;;7.54;100
17950;BME280;9100;48.700;9.316;2023-04-26T03:29:45;97787.2;;;7.46;100
17950;BME280;9100;48.700;9.316;2023-04-26T03:30:26;97791.3;;;7.55;100
17950;BME280;9100;48.700;9.316;2023-04-26T03:31:26;97788.8;;;7.55;100
17950;BME280;9100;48.700;9.316;2023-04-26T03:32:26;97787.8;;;7.56;100
17950;BME280;9100;48.700;9.316;2023-04-26T03:33:26;97795.6;;;7.55;100
17950;BME280;9100;48.700;9.316;2023-04-26T03:34:26;97799.90000000001;;;7.54;100
17950;BME280;9100;48.700;9.316;2023-04-26T03:34:45;97798.2;;;7.55;100
17950;BME280;9100;48.700;9.316;2023-04-26T03:35:26;97800.7;;;7.55;100
17950;BME280;9100;48.700;9.316;2023-04-26T03:36:26;97793.2;;;7.53;100
17950;BME280;9100;48.700;9.316;2023-04-26T03:37:26;97794;;;7.54;100
17950;BME280;9100;48.700;9.316;2023-04-26T03:38:26;97798.29999999999;;;7.53;100
17950;BME280;9100;48.700;9.316;2023-04-26T03:39:26;97806.9;;;7.52;100
17950;BME280;9100;48.700;9.316;2023-04-26T03:39:45;97797.5;;;7.53;100
17950;BME280;9100;48.700;9.316;2023-04-26T03:40:26;97799.3;;;7.52;100
17950;BME280;9100;48.700;9.316;2023-04-26T03:41:26;97801.8;;;7.52;100
17950;BME280;9100;48.700;9.316;2023-04-26T03:42:26;97792.6;;;7.51;100
17950;BME280;9100;48.700;9.316;2023-04-26T03:43:26;97798.6;;;7.5;100
17950;BME280;9100;48.700;9.316;2023-04-26T03:44:26;97796.2;;;7.49;100
17950;BME280;9100;48.700;9.316;2023-04-26T03:44:45;97797.79999999999;;;7.5;100
17950;BME280;9100;48.700;9.316;2023-04-26T03:45:26;97795.4;;;7.48;100
17950;BME280;9100;48.700;9.316;2023-04-26T03:46:26;97796.2;;;7.49;100
17950;BME280;9100;48.700;9.316;2023-04-26T03:47:26;97800.5;;;7.48;100
17950;BME280;9100;48.700;9.316;2023-04-26T03:48:26;97790.3;;;7.48;100
17950;BME280;9100;48.700;9.316;2023-04-26T03:49:26;97799.7;;;7.48;100
17950;BME280;9100;48.700;9.316;2023-04-26T03:49:45;97796.40000000001;;;7.47;100
17950;BME280;9100;48.700;9.316;2023-04-26T03:50:26;97799;;;7.47;100
17950;BME280;9100;48.700;9.316;2023-04-26T03:51:26;97780.2;;;7.48;100
17950;BME280;9100;48.700;9.316;2023-04-26T03:52:26;97788.8;;;7.47;100
17950;BME280;9100;48.700;9.316;2023-04-26T03:53:26;97785.6;;;7.45;100
17950;BME280;9100;48.700;9.316;2023-04-26T03:54:26;97790;;;7.43;100
17950;BME280;9100;48.700;9.316;2023-04-26T03:54:45;97795.1;;;7.43;100
17950;BME280;9100;48.700;9.316;2023-04-26T03:55:26;97791;;;7.42;100
17950;BME280;9100;48.700;9.316;2023-04-26T03:56:26;97773.1;;;7.34;100
17950;BME280;9100;48.700;9.316;2023-04-26T03:57:26;97778.3;;;7.42;100
17950;BME280;9100;48.700;9.316;2023-04-26T03:58:27;97783.5;;;7.41;100
17950;BME280;9100;48.700;9.316;2023-04-26T03:59:26;97784.6;;;7.38;100
17950;BME280;9100;48.700;9.316;2023-04-26T03:59:45;97785.40000000001;;;7.39;100
17950;BME280;9100;48.700;9.316;2023-04-26T04:00:26;97786.3;;;7.38;100
17950;BME280;9100;48.700;9.316;2023-04-26T04:01:27;97784.6;;;7.38;100
17950;BME280;9100;48.700;9.316;2023-04-26T04:02:26;97789.09999999999;;;7.36;100
17950;BME280;9100;48.700;9.316;2023-04-26T04:03:26;97795.1;;;7.35;100
17950;BME280;9100;48.700;9.316;2023-04-26T04:04:26;97793.5;;;7.34;100
17950;BME280;9100;48.700;9.316;2023-04-26T04:04:45;97794.5;;;7.33;100
17950;BME280;9100;48.700;9.316;2023-04-26T04:05:26;97797;;;7.33;100
17950;BME280;9100;48.700;9.316;2023-04-26T04:06:26;97790.3;;;7.32;100
17950;BME280;9100;48.700;9.316;2023-04-26T04:07:26;97794.8;;;7.3;100
17950;BME280;9100;48.700;9.316;2023-04-26T04:08:26;97789.8;;;7.28;100
17950;BME280;9100;48.700;9.316;2023-04-26T04:09:26;97792.5;;;7.27;100
17950;BME280;9100;48.700;9.316;2023-04-26T04:09:45;97787.59999999999;;;7.25;100
17950;BME280;9100;48.700;9.316;2023-04-26T04:10:27;97791.9;;;7.25;100
17950;BME280;9100;48.700;9.316;2023-04-26T04:11:26;97793.6;;;7.24;100
17950;BME280;9100;48.700;9.316;2023-04-26T04:12:27;97788.7;;;7.23;100
17950;BME280;9100;48.700;9.316;2023-04-26T04:13:26;97787.3;;;7.2;100
17950;BME280;9100;48.700;9.316;2023-04-26T04:14:27;97790.9;;;7.18;100
17950;BME280;9100;48.700;9.316;2023-04-26T04:14:45;97792.7;;;7.17;100
17950;BME280;9100;48.700;9.316;2023-04-26T04:15:27;97790.09999999999;;;7.17;100
17950;BME280;9100;48.700;9.316;2023-04-26T04:16:26;97795.2;;;7.17;100
17950;BME280;9100;48.700;9.316;2023-04-26T04:17:26;97795.3;;;7.16;100
17950;BME280;9100;48.700;9.316;2023-04-26T04:18:26;97793.1;;;7.13;100
17950;BME280;9100;48.700;9.316;2023-04-26T04:19:27;97789.3;;;7.09;100
17950;BME280;9100;48.700;9.316;2023-04-26T04:19:45;97796.3;;;7.07;100
17950;BME280;9100;48.700;9.316;2023-04-26T04:20:26;97796.3;;;7.07;100
17950;BME280;9100;48.700;9.316;2023-04-26T04:21:26;97787.2;;;7.04;100
17950;BME280;9100;48.700;9.316;2023-04-26T04:22:26;97790.8;;;7.02;100
17950;BME280;9100;48.700;9.316;2023-04-26T04:23:26;97799.7;;;6.98;100
17950;BME280;9100;48.700;9.316;2023-04-26T04:24:26;97794.1;;;6.94;100
17950;BME280;9100;48.700;9.316;2023-04-26T04:24:45;97795.9;;;6.94;100
17950;BME280;9100;48.700;9.316;2023-04-26T04:25:26;97795.9;;;6.94;100
17950;BME280;9100;48.700;9.316;2023-04-26T04:26:26;97791.6;;;6.94;100
17950;BME280;9100;48.700;9.316;2023-04-26T04:27:26;97791.7;;;6.93;100
17950;BME280;9100;48.700;9.316;2023-04-26T04:28:27;97794.3;;;6.93;100
17950;BME280;9100;48.700;9.316;2023-04-26T04:29:26;97799.40000000001;;;6.93;100
17950;BME280;9100;48.700;9.316;2023-04-26T04:29:45;97789.4;;;6.91;100
17950;BME280;9100;48.700;9.316;2023-04-26T04:30:26;97795.1;;;6.93;100
17950;BME280;9100;48.700;9.316;2023-04-26T04:31:27;97796.2;;;6.91;100
17950;BME280;9100;48.700;9.316;2023-04-26T04:32:26;97793.7;;;6.91;100
17950;BME280;9100;48.700;9.316;2023-04-26T04:33:26;97794.6;;;6.9;100
17950;BME280;9100;48.700;9.316;2023-04-26T04:34:26;97799.2;;;6.86;100
17950;BME280;9100;48.700;9.316;2023-04-26T04:34:45;97799.2;;;6.86;100
17950;BME280;9100;48.700;9.316;2023-04-26T04:35:28;97798.40000000001;;;6.86;100
17950;BME280;9100;48.700;9.316;2023-04-26T04:36:26;97796.8;;;6.85;100
17950;BME280;9100;48.700;9.316;2023-04-26T04:37:27;97796.8;;;6.85;100
17950;BME280;9100;48.700;9.316;2023-04-26T04:38:27;97799.2;;;6.86;100
17950;BME280;9100;48.700;9.316;2023-04-26T04:39:26;97803.5;;;6.86;100